Home > Products > Valid Products > TAF

000
FTUS45 KTFX 311100
TAFGTF
TAF
KGTF 311120Z 3112/0112 23007KT P6SM SKC
     FM312200 26009KT P6SM VCTS SCT100CB BKN120
     FM010400 VRB05KT P6SM SCT120=



000
FTUS45 KTFX 311100
TAFHLN
TAF
KHLN 311120Z 3112/0112 VRB06KT P6SM FEW110
     FM312000 34007KT P6SM VCTS SCT100CB BKN120
     FM010200 VRB05KT P6SM SKC=



000
FTUS45 KTFX 311100
TAFHVR
TAF
KHVR 311120Z 3112/0112 26007KT P6SM SKC
     FM312000 01009KT P6SM VCTS SCT100CB BKN120
     FM010400 VRB06KT P6SM SCT120=



000
FTUS45 KTFX 311100
TAFCTB
TAF
KCTB 311120Z 3112/0112 31009KT P6SM FEW110
     FM312100 33011KT P6SM VCTS SCT100CB BKN120
     FM010300 VRB06KT P6SM SCT120=



000
FTUS45 KTFX 311100
TAFLWT
TAF
KLWT 311120Z 3112/0112 17007KT P6SM FEW110
     FM312200 33011G22KT P6SM VCTS SCT090CB BKN120
     FM010400 VRB06KT P6SM SCT120=



000
FTUS45 KTFX 311100
TAFBZN
TAF
KBZN 311120Z 3112/0112 16007KT P6SM SCT150
     FM312000 26009KT P6SM VCTS SCT080CB BKN110
     FM010200 VRB05KT P6SM SKC=



000
FTUS45 KTFX 310500
TAFBZN
TAF
KBZN 310520Z 3106/0106 15005KT P6SM SCT150
     FM311800 VRB05KT P6SM VCTS SCT100CB
     FM010300 VRB05KT P6SM SCT150=



000
FTUS45 KTFX 310500
TAFCTB
TAF
KCTB 310520Z 3106/0106 28005KT P6SM SKC=



000
FTUS45 KTFX 310500
TAFHVR
TAF
KHVR 310520Z 3106/0106 VRB05KT P6SM SKC=



000
FTUS45 KTFX 310500
TAFGTF
TAF
KGTF 310520Z 3106/0106 22005KT P6SM SKC=



000
FTUS45 KTFX 310500
TAFLWT
TAF
KLWT 310520Z 3106/0106 VRB05KT P6SM SKC=



000
FTUS45 KTFX 310500
TAFHLN
TAF
KHLN 310520Z 3106/0106 VRB05KT P6SM SKC=



000
FTUS45 KTFX 302300
TAFGTF
TAF
KGTF 302327Z 3100/3124 22010KT P6SM VCTS SCT110CB BKN250
     FM310400 22005KT P6SM SCT110=



000
FTUS45 KTFX 302300
TAFLWT
TAF
KLWT 302327Z 3100/3124 15010KT P6SM FEW110
     FM310600 VRB05KT P6SM SKC=



000
FTUS45 KTFX 302300
TAFCTB
TAF
KCTB 302327Z 3100/3124 25010KT P6SM VCTS SCT090CB BKN120
     FM310300 28005KT P6SM SKC=



000
FTUS45 KTFX 302300
TAFHVR
TAF
KHVR 302327Z 3100/3124 15005KT P6SM SKC
     FM310600 VRB05KT P6SM SKC=



000
FTUS45 KTFX 302300
TAFBZN
TAF
KBZN 302327Z 3100/3124 VRB05KT P6SM SCT100
     FM310200 15005KT P6SM SCT150=



000
FTUS45 KTFX 302300
TAFHLN
TAF
KHLN 302327Z 3100/3124 VRB05KT P6SM VCTS SCT090CB BKN120
     FM310300 VRB05KT P6SM SKC=



000
FTUS45 KTFX 302000 AAA
TAFGTF
TAF AMD
KGTF 302007Z 3020/3118 16007KT P6SM SCT110 SCT250
     FM310000 13007KT P6SM VCTS SCT110CB BKN250
     FM310400 22006KT P6SM SCT110=



000
FTUS45 KTFX 301700
TAFHLN
TAF
KHLN 301720Z 3018/3118 VRB06KT P6SM SKC
     FM302200 VRB06KT P6SM VCTS SCT090CB BKN120
     FM310300 VRB06KT P6SM SKC=



000
FTUS45 KTFX 301700
TAFBZN
TAF
KBZN 301720Z 3018/3118 VRB06KT P6SM SCT100
     FM310200 15004KT P6SM SCT150=



000
FTUS45 KTFX 301700
TAFLWT
TAF
KLWT 301720Z 3018/3118 16011KT P6SM FEW110
     FM310600 VRB06KT P6SM SKC=



000
FTUS45 KTFX 301700
TAFCTB
TAF
KCTB 301720Z 3018/3118 16011KT P6SM FEW110
     FM302300 20009KT P6SM VCTS SCT090CB BKN120
     FM310300 VRB06KT P6SM SKC=



000
FTUS45 KTFX 301700
TAFHVR
TAF
KHVR 301720Z 3018/3118 16007KT P6SM SKC
     FM310600 VRB06KT P6SM SKC=



000
FTUS45 KTFX 301700
TAFGTF
TAF
KGTF 301720Z 3018/3118 19011KT P6SM FEW110=



000
FTUS45 KTFX 301100
TAFHVR
TAF
KHVR 301125Z 3012/3112 15009KT P6SM SKC=



000
FTUS45 KTFX 301100
TAFHLN
TAF
KHLN 301125Z 3012/3112 VRB06KT P6SM SCT150
     FM302200 VRB06KT P6SM BKN120=



000
FTUS45 KTFX 301100
TAFCTB
TAF
KCTB 301125Z 3012/3112 22007KT P6SM FEW150=



000
FTUS45 KTFX 301100
TAFLWT
TAF
KLWT 301125Z 3012/3112 12010KT P6SM FEW150=



000
FTUS45 KTFX 301100
TAFGTF
TAF
KGTF 301125Z 3012/3112 15010KT P6SM FEW150=



000
FTUS45 KTFX 301100
TAFBZN
TAF
KBZN 301125Z 3012/3112 VRB06KT P6SM BKN120
     FM310200 15004KT P6SM SCT150=



000
FTUS45 KTFX 300500
TAFCTB
TAF
KCTB 300535Z 3006/3106 15005KT P6SM SCT100=



000
FTUS45 KTFX 300500
TAFBZN
TAF
KBZN 300535Z 3006/3106 VRB03KT P6SM SCT120
     FM302000 VRB06KT P6SM VCTS SCT080CB BKN100=



000
FTUS45 KTFX 300500
TAFLWT
TAF
KLWT 300535Z 3006/3106 10010KT P6SM SCT100=



000
FTUS45 KTFX 300500
TAFHLN
TAF
KHLN 300535Z 3006/3106 VRB03KT P6SM SCT120
     FM302000 VRB06KT P6SM VCTS SCT080CB BKN100=



000
FTUS45 KTFX 300500
TAFGTF
TAF
KGTF 300535Z 3006/3106 10005KT P6SM FEW100=



000
FTUS45 KTFX 300500
TAFHVR
TAF
KHVR 300535Z 3006/3106 10010KT P6SM FEW100=



000
FTUS45 KTFX 292300
TAFLWT
TAF
KLWT 292320Z 3000/3024 10012G20KT P6SM SCT100
     FM300300 12008KT P6SM SKC=



000
FTUS45 KTFX 292300
TAFGTF
TAF
KGTF 292320Z 3000/3024 09008KT P6SM SCT100 SCT250
     FM300300 VRB06KT P6SM SKC=



000
FTUS45 KTFX 292300
TAFHVR
TAF
KHVR 292320Z 3000/3024 10008KT P6SM SCT100
     FM300200 VRB06KT P6SM SKC=



000
FTUS45 KTFX 292300
TAFHLN
TAF
KHLN 292320Z 3000/3024 06009KT P6SM VCTS SCT080CB BKN120
     FM300200 VRB04KT P6SM BKN250=



000
FTUS45 KTFX 292300
TAFBZN
TAF
KBZN 292320Z 3000/3024 13012KT P6SM VCTS SCT080CB BKN150
     FM300200 13005KT P6SM SCT200
     FM302200 15010KT P6SM VCTS SCT080CB BKN150=



000
FTUS45 KTFX 292300
TAFCTB
TAF
KCTB 292320Z 3000/3024 13010KT P6SM SCT100
     FM300300 VRB06KT P6SM SKC=



000
FTUS45 KTFX 291700
TAFCTB
TAF
KCTB 291720Z 2918/3018 11008KT P6SM SKC
     FM291900 13010KT P6SM SCT100
     FM300300 VRB06KT P6SM SKC=



000
FTUS45 KTFX 291700
TAFHLN
TAF
KHLN 291720Z 2918/3018 VRB05KT P6SM SCT120
     FM292000 VRB06KT P6SM SCT080 SCT150
     FM292200 08009KT P6SM VCTS SCT080CB BKN250
     FM300200 VRB04KT P6SM BKN250=



000
FTUS45 KTFX 291700
TAFBZN
TAF
KBZN 291720Z 2918/3018 VRB06KT P6SM SCT120
     FM292000 VRB06KT P6SM SCT080 SCT150
     FM292200 VRB06KT P6SM VCTS SCT080CB BKN250
     FM300200 13005KT P6SM BKN250
     FM301100 VRB05KT P6SM BKN250=



000
FTUS45 KTFX 291700
TAFGTF
TAF
KGTF 291720Z 2918/3018 09008KT P6SM SCT100 SCT250
     FM300300 10008KT P6SM SKC
     FM301000 21006KT P6SM SKC=



000
FTUS45 KTFX 291700
TAFLWT
TAF
KLWT 291720Z 2918/3018 10012G20KT P6SM SCT100 SCT250
     FM300300 11008KT P6SM SKC
     FM301100 VRB05KT P6SM SKC=



000
FTUS45 KTFX 291700
TAFHVR
TAF
KHVR 291720Z 2918/3018 VRB05KT P6SM SKC
     FM291900 10008KT P6SM SCT100
     FM300200 12006KT P6SM SKC
     FM301100 VRB05KT P6SM SKC=



000
FTUS45 KTFX 291200 AAA
TAFLWT
TAF AMD
KLWT 291251Z 2913/3012 10010KT P6SM VCSH SCT050 BKN080
     FM292200 12010KT P6SM BKN120=



000
FTUS45 KTFX 291100
TAFCTB
TAF
KCTB 291126Z 2912/3012 10008KT P6SM FEW120=



000
FTUS45 KTFX 291100
TAFBZN
TAF
KBZN 291126Z 2912/3012 VRB05KT P6SM BKN120
     FM292000 VRB06KT P6SM VCTS SCT060CB BKN090
     FM300200 15005KT P6SM SCT150=



000
FTUS45 KTFX 291100
TAFHLN
TAF
KHLN 291126Z 2912/3012 VRB04KT P6SM BKN120
     FM292100 VRB06KT P6SM VCSH BKN090
     FM300300 VRB06KT P6SM SCT150=



000
FTUS45 KTFX 291100
TAFLWT
TAF
KLWT 291126Z 2912/3012 12010G20KT P6SM VCSH SCT050 BKN080
     FM292200 12010KT P6SM BKN120=



000
FTUS45 KTFX 291100
TAFGTF
TAF
KGTF 291126Z 2912/3012 VRB06KT P6SM BKN100
     FM291900 VRB05KT P6SM FEW120=



000
FTUS45 KTFX 291100
TAFHVR
TAF
KHVR 291126Z 2912/3012 09010KT P6SM FEW150=



000
FTUS45 KTFX 290600 AAA
TAFLWT
TAF AMD
KLWT 290654Z 2907/3006 11010KT P6SM VCSH SCT060 BKN090
     FM291100 11010KT P6SM SCT120=



000
FTUS45 KTFX 290500 AAA
TAFGTF
TAF AMD
KGTF 290548Z 2906/3006 VRB06KT P6SM VCSH SCT050 BKN090
     FM291000 VRB05KT P6SM FEW120=



000
FTUS45 KTFX 290500
TAFHLN
TAF
KHLN 290535Z 2906/3006 VRB03KT P6SM SCT120
     FM292200 VRB06KT P6SM VCSH BKN100=



000
FTUS45 KTFX 290500
TAFBZN
TAF
KBZN 290535Z 2906/3006 VRB03KT P6SM SCT120
     FM292200 VRB06KT P6SM VCSH BKN100=



000
FTUS45 KTFX 290500
TAFLWT
TAF
KLWT 290535Z 2906/3006 11010KT P6SM SCT120=



000
FTUS45 KTFX 290500
TAFCTB
TAF
KCTB 290535Z 2906/3006 VRB05KT P6SM FEW120=



000
FTUS45 KTFX 290500
TAFHVR
TAF
KHVR 290535Z 2906/3006 10010KT P6SM FEW120=



000
FTUS45 KTFX 290500
TAFGTF
TAF
KGTF 290535Z 2906/3006 VRB05KT P6SM FEW120=



000
FTUS45 KTFX 290400 AAA
TAFHVR
TAF AMD
KHVR 290400Z 2904/2924 08015KT P6SM SCT080 BKN100
      TEMPO 2904/2905 -TSRA BKN080CB
     FM290500 10005KT P6SM SCT120=



000
FTUS45 KTFX 282300
TAFGTF
TAF
KGTF 282335Z 2900/2924 08007KT P6SM SCT100
     FM290600 VRB05KT P6SM FEW120=



000
FTUS45 KTFX 282300
TAFHVR
TAF
KHVR 282335Z 2900/2924 08015KT P6SM SCT120
     FM290400 10005KT P6SM SCT120=



000
FTUS45 KTFX 282300
TAFCTB
TAF
KCTB 282335Z 2900/2924 16010KT P6SM VCSH BKN100
     FM290600 VRB06KT P6SM SCT120=



000
FTUS45 KTFX 282300
TAFHLN
TAF
KHLN 282335Z 2900/2924 VRB06KT P6SM VCSH BKN100
     FM290600 VRB06KT P6SM SCT120
     FM292200 VRB06KT P6SM VCSH BKN100=



000
FTUS45 KTFX 282300
TAFBZN
TAF
KBZN 282335Z 2900/2924 VRB06KT P6SM VCSH BKN100
     FM290600 VRB06KT P6SM SCT120
     FM292200 VRB06KT P6SM VCSH BKN100=



000
FTUS45 KTFX 282300
TAFLWT
TAF
KLWT 282335Z 2900/2924 10010KT P6SM VCSH BKN100
     FM290600 VRB06KT P6SM SCT120=



000
FTUS45 KTFX 281700
TAFHVR
TAF
KHVR 281725Z 2818/2918 07008KT P6SM SCT120
     FM290300 10008KT P6SM SCT150=



000
FTUS45 KTFX 281700
TAFCTB
TAF
KCTB 281725Z 2818/2918 VRB05KT P6SM SCT120
     FM282200 12009KT P6SM SCT090 BKN150
     FM290300 10007KT P6SM SCT150=



000
FTUS45 KTFX 281700
TAFLWT
TAF
KLWT 281725Z 2818/2918 10010KT P6SM SCT120
     FM290300 12008KT P6SM BKN150=



000
FTUS45 KTFX 281700
TAFGTF
TAF
KGTF 281725Z 2818/2918 VRB05KT P6SM SCT150
     FM282100 08009KT P6SM SCT090 BKN150
     FM290300 10008KT P6SM SCT150=



000
FTUS45 KTFX 281700
TAFBZN
TAF
KBZN 281725Z 2818/2918 10005KT P6SM BKN150
     FM282000 05007KT P6SM SCT070 BKN120
     FM290400 08006KT P6SM BKN150=



000
FTUS45 KTFX 281700
TAFHLN
TAF
KHLN 281725Z 2818/2918 VRB05KT P6SM BKN150
     FM282100 07006KT P6SM SCT090 BKN120
     FM290300 25005KT P6SM BKN150=



    US Dept of Commerce
    National Oceanic and Atmospheric Administration
    National Weather Service
    1325 East West Highway
    Silver Spring, MD 20910
    Page Author: NWS Internet Services Team
Disclaimer
Information Quality
Credits
Glossary
Privacy Policy
Freedom of Information Act (FOIA)
About Us
Career Opportunities